Time;durP1;ratioP1;P1;durP2;ratioP2;P2;SDS_P1;SDS_P2;PMS_P1;PMS_P2;Temp;Humidity;BMP_temperature;BMP_pressure;BME280_temperature;BME280_humidity;BME280_pressure;Samples;Min_cycle;Max_cycle;Signal;HPM_P1;HPM_P2
2022/10/01 03:01:50;;;;;;;2.03;1.42;;;19.10;46.40;;;;;;5239151;23;45882;-70
2022/10/01 03:04:18;;;;;;;1.90;1.70;;;19.10;46.40;;;;;;4899699;28;45442;-69
2022/10/01 03:06:45;;;;;;;1.70;1.48;;;19.10;46.40;;;;;;4918259;28;45083;-72
2022/10/01 03:09:11;;;;;;;1.80;1.60;;;19.10;46.40;;;;;;4941148;28;45664;-69
2022/10/01 03:11:36;;;;;;;1.90;1.60;;;19.00;46.40;;;;;;4925928;28;46271;-69
2022/10/01 03:14:02;;;;;;;1.77;1.63;;;19.00;46.40;;;;;;4912552;28;44761;-70
2022/10/01 03:16:28;;;;;;;1.35;1.25;;;19.00;46.40;;;;;;4928349;28;45185;-70
2022/10/01 03:18:54;;;;;;;1.50;1.40;;;19.00;46.40;;;;;;4915857;28;45626;-68
2022/10/01 03:21:19;;;;;;;2.03;1.52;;;19.00;46.40;;;;;;4929821;28;45275;-71
2022/10/01 03:23:45;;;;;;;1.67;1.40;;;19.00;46.40;;;;;;4935357;28;44875;-68
2022/10/01 03:26:10;;;;;;;1.80;1.58;;;19.00;46.40;;;;;;4949789;28;45458;-68
2022/10/01 03:28:36;;;;;;;1.80;1.48;;;19.00;46.50;;;;;;4907574;28;45445;-68
2022/10/01 03:31:08;;;;;;;2.35;1.80;;;19.00;46.50;;;;;;4912750;28;48178;-71
2022/10/01 03:33:34;;;;;;;2.10;1.52;;;19.00;46.40;;;;;;4914219;28;45238;-71
2022/10/01 03:36:01;;;;;;;;;;;19.00;46.50;;;;;;4915157;28;45295;-64
2022/10/01 03:38:26;;;;;;;;;;;19.00;46.60;;;;;;4921880;28;45399;-64
2022/10/01 03:40:52;;;;;;;;;;;19.00;46.60;;;;;;4953261;28;45549;-63
2022/10/01 03:43:17;;;;;;;;;;;19.00;46.60;;;;;;4951145;28;44817;-63
2022/10/01 03:45:43;;;;;;;;;;;19.00;46.60;;;;;;4949172;28;45476;-64
2022/10/01 03:48:08;;;;;;;;;;;19.00;46.60;;;;;;4951934;28;45554;-63
2022/10/01 03:50:35;;;;;;;;;;;19.00;46.60;;;;;;4947863;28;46157;-64
2022/10/01 03:53:01;;;;;;;;;;;19.10;46.70;;;;;;4951093;28;45537;-64
2022/10/01 03:55:27;;;;;;;;;;;19.00;46.60;;;;;;4949442;28;45494;-65
2022/10/01 03:57:52;;;;;;;;;;;19.10;46.70;;;;;;4947902;28;45457;-63
2022/10/01 04:00:18;;;;;;;;;;;19.10;46.60;;;;;;4942563;28;46361;-64
2022/10/01 04:02:43;;;;;;;;;;;19.10;46.60;;;;;;4949944;28;45129;-64
2022/10/01 04:05:09;;;;;;;;;;;19.10;46.60;;;;;;4953857;28;45188;-63
2022/10/01 04:07:34;;;;;;;;;;;19.10;46.50;;;;;;4946822;28;45152;-63
2022/10/01 04:10:00;;;;;;;;;;;19.10;46.60;;;;;;4951701;28;46258;-64
2022/10/01 04:12:25;;;;;;;;;;;19.10;46.50;;;;;;4952447;28;46470;-63
2022/10/01 04:14:51;;;;;;;;;;;19.10;46.50;;;;;;4938394;28;45429;-64
2022/10/01 04:17:16;;;;;;;;;;;19.10;46.50;;;;;;4948396;28;45131;-65
2022/10/01 04:19:42;;;;;;;;;;;19.10;46.50;;;;;;4952090;28;47217;-63
2022/10/01 04:22:07;;;;;;;;;;;19.10;46.60;;;;;;4957312;28;45188;-63
2022/10/01 04:24:33;;;;;;;;;;;19.10;46.50;;;;;;4950826;28;45261;-64
2022/10/01 04:26:58;;;;;;;;;;;19.20;46.50;;;;;;4947418;28;45417;-64
2022/10/01 04:29:24;;;;;;;;;;;19.20;46.50;;;;;;4946098;28;46158;-63
2022/10/01 04:31:49;;;;;;;;;;;19.20;46.50;;;;;;4952527;28;45318;-64
2022/10/01 04:34:14;;;;;;;;;;;19.20;46.50;;;;;;4958859;28;45329;-64
2022/10/01 04:36:40;;;;;;;;;;;19.20;46.60;;;;;;4951384;28;45643;-65
2022/10/01 04:39:05;;;;;;;;;;;19.20;46.60;;;;;;4954244;28;46090;-64
2022/10/01 04:41:31;;;;;;;;;;;19.20;46.60;;;;;;4951924;28;45414;-63
2022/10/01 04:43:58;;;;;;;;;;;19.20;46.40;;;;;;4957604;28;45559;-64
2022/10/01 04:46:24;;;;;;;;;;;19.20;46.50;;;;;;4949068;28;45281;-63
2022/10/01 04:48:49;;;;;;;;;;;19.20;46.50;;;;;;4946602;28;44964;-65
2022/10/01 04:51:15;;;;;;;;;;;19.20;46.50;;;;;;4950024;28;45276;-62
2022/10/01 04:53:41;;;;;;;;;;;19.20;46.50;;;;;;4947113;28;44806;-64
2022/10/01 04:56:06;;;;;;;;;;;19.20;46.50;;;;;;4950132;28;45295;-65
2022/10/01 04:58:32;;;;;;;;;;;19.20;46.50;;;;;;4951490;28;46046;-64
2022/10/01 05:00:57;;;;;;;;;;;19.20;46.50;;;;;;4949377;28;45752;-62
2022/10/01 05:03:23;;;;;;;;;;;19.20;46.50;;;;;;4950830;28;44680;-64
2022/10/01 05:05:48;;;;;;;;;;;19.20;46.50;;;;;;4950770;28;45310;-64
2022/10/01 05:08:14;;;;;;;;;;;19.20;46.50;;;;;;4954908;28;46133;-64
2022/10/01 05:10:39;;;;;;;;;;;19.20;46.50;;;;;;4952530;28;45676;-64
2022/10/01 05:13:05;;;;;;;;;;;19.20;46.50;;;;;;4950635;28;45206;-64
2022/10/01 05:15:30;;;;;;;;;;;19.20;46.50;;;;;;4951507;28;45271;-65
2022/10/01 05:17:56;;;;;;;;;;;19.20;46.50;;;;;;4951839;28;45962;-64
2022/10/01 05:20:22;;;;;;;;;;;19.20;46.60;;;;;;4952325;28;47090;-64
2022/10/01 05:22:48;;;;;;;;;;;19.20;46.50;;;;;;4933446;28;45803;-64
2022/10/01 05:25:14;;;;;;;;;;;19.20;46.50;;;;;;4948560;28;45338;-64
2022/10/01 05:27:40;;;;;;;;;;;19.20;46.60;;;;;;4946154;28;46209;-63
2022/10/01 05:30:09;;;;;;;;;;;19.20;46.60;;;;;;4953160;28;44895;-63
2022/10/01 05:32:35;;;;;;;;;;;19.20;46.60;;;;;;4952650;28;45730;-63
2022/10/01 05:35:00;;;;;;;;;;;19.20;46.60;;;;;;4948374;28;47336;-64
2022/10/01 05:37:26;;;;;;;;;;;19.20;47.20;;;;;;4949302;28;46000;-64
2022/10/01 05:39:51;;;;;;;;;;;19.20;46.50;;;;;;4953257;28;45519;-64
2022/10/01 05:42:17;;;;;;;;;;;19.20;46.60;;;;;;4954859;28;44713;-64
2022/10/01 05:44:45;;;;;;;;;;;19.20;46.50;;;;;;4952058;28;45165;-64
2022/10/01 05:47:12;;;;;;;;;;;19.20;46.50;;;;;;4948269;28;46395;-65
2022/10/01 05:49:41;;;;;;;;;;;19.20;46.50;;;;;;4952561;28;45193;-65
2022/10/01 05:52:08;;;;;;;;;;;19.20;46.50;;;;;;4935972;28;45445;-64
2022/10/01 05:54:34;;;;;;;;;;;19.20;46.50;;;;;;4953670;28;45449;-65
2022/10/01 05:56:59;;;;;;;;;;;19.20;46.50;;;;;;4953716;28;46116;-65
2022/10/01 05:59:25;;;;;;;;;;;19.20;46.50;;;;;;4959322;28;45250;-65
2022/10/01 06:01:50;;;;;;;;;;;19.20;46.50;;;;;;4950126;28;45327;-65
2022/10/01 06:04:16;;;;;;;;;;;19.20;46.50;;;;;;4953906;28;45266;-64
2022/10/01 06:06:41;;;;;;;;;;;19.20;46.50;;;;;;4916219;28;45205;-64
2022/10/01 06:09:07;;;;;;;;;;;19.20;46.50;;;;;;4942257;28;44698;-65
2022/10/01 06:11:34;;;;;;;;;;;19.20;46.50;;;;;;4951809;28;45239;-65
2022/10/01 06:14:00;;;;;;;;;;;19.20;46.50;;;;;;4950164;28;45302;-64
2022/10/01 06:16:25;;;;;;;;;;;19.20;46.50;;;;;;4952381;28;46160;-65
2022/10/01 06:18:56;;;;;;;;;;;19.20;46.50;;;;;;4952480;28;44711;-64
2022/10/01 06:21:22;;;;;;;;;;;19.10;46.60;;;;;;4947276;28;45723;-65
2022/10/01 06:23:49;;;;;;;;;;;19.10;46.60;;;;;;4947642;28;45327;-65
2022/10/01 06:26:14;;;;;;;;;;;19.10;46.60;;;;;;4946614;28;45876;-65
2022/10/01 06:28:40;;;;;;;;;;;19.10;46.60;;;;;;4949175;28;45294;-64
2022/10/01 06:31:05;;;;;;;;;;;19.10;46.60;;;;;;4947041;28;45240;-65
2022/10/01 06:33:31;;;;;;;;;;;19.10;46.60;;;;;;4944800;28;45352;-65
2022/10/01 06:35:56;;;;;;;;;;;19.10;46.60;;;;;;4951158;28;46018;-64
2022/10/01 06:38:22;;;;;;;;;;;19.10;46.60;;;;;;4949768;28;44784;-64
2022/10/01 06:40:52;;;;;;;;;;;19.10;47.20;;;;;;4962674;23;45301;-64
2022/10/01 06:43:17;;;;;;;;;;;19.10;46.70;;;;;;4914994;28;46542;-64
2022/10/01 06:45:43;;;;;;;;;;;19.00;46.60;;;;;;4929252;28;46159;-65
2022/10/01 06:48:10;;;;;;;;;;;19.00;46.60;;;;;;4928745;28;46430;-64
2022/10/01 06:50:35;;;;;;;;;;;19.00;46.70;;;;;;4930610;28;45318;-64
2022/10/01 06:53:01;;;;;;;;;;;19.00;46.70;;;;;;4932486;28;45227;-64
2022/10/01 06:55:27;;;;;;;;;;;19.00;46.70;;;;;;4930176;28;45240;-65
2022/10/01 06:57:54;;;;;;;;;;;19.00;46.70;;;;;;4928104;28;45487;-65
2022/10/01 07:00:19;;;;;;;;;;;19.00;46.70;;;;;;4913584;28;45105;-65
2022/10/01 07:02:45;;;;;;;;;;;19.00;46.70;;;;;;4930197;28;45405;-64
2022/10/01 07:05:11;;;;;;;;;;;19.00;46.70;;;;;;4926138;28;45950;-64
2022/10/01 07:07:37;;;;;;;;;;;19.00;46.60;;;;;;4933516;28;45498;-64
2022/10/01 07:10:04;;;;;;;;;;;19.00;46.70;;;;;;4916356;28;44735;-66
2022/10/01 07:12:29;;;;;;;;;;;18.90;46.60;;;;;;4916236;28;45083;-64
2022/10/01 07:14:55;;;;;;;;;;;18.90;46.60;;;;;;4926699;28;45578;-65
2022/10/01 07:17:20;;;;;;;;;;;18.90;46.60;;;;;;4928713;28;45315;-64
2022/10/01 07:19:46;;;;;;;;;;;18.90;46.70;;;;;;4929149;28;45251;-65
2022/10/01 07:22:11;;;;;;;;;;;18.90;46.70;;;;;;4915651;28;46075;-65
2022/10/01 07:24:37;;;;;;;;;;;18.90;46.70;;;;;;4918799;28;46543;-65
2022/10/01 07:27:03;;;;;;;;;;;18.90;46.70;;;;;;4920754;28;45349;-65
2022/10/01 07:29:28;;;;;;;;;;;18.90;46.70;;;;;;4931853;28;45385;-65
2022/10/01 07:32:00;;;;;;;;;;;18.90;46.70;;;;;;4927049;28;45620;-64
2022/10/01 07:34:30;;;;;;;;;;;18.90;46.70;;;;;;4926149;28;45993;-64
2022/10/01 07:36:55;;;;;;;;;;;18.90;46.70;;;;;;4924933;28;45418;-64
2022/10/01 07:39:21;;;;;;;;;;;18.90;46.70;;;;;;4928227;28;45048;-65
2022/10/01 07:41:47;;;;;;;;;;;18.80;46.70;;;;;;4924235;28;45666;-65
2022/10/01 07:44:12;;;;;;;;;;;18.80;47.30;;;;;;4926297;28;45297;-65
2022/10/01 07:46:38;;;;;;;;;;;18.80;46.70;;;;;;4932491;28;45541;-66
2022/10/01 07:49:03;;;;;;;;;;;18.80;46.70;;;;;;4933341;28;45306;-65
2022/10/01 07:51:29;;;;;;;;;;;18.80;46.70;;;;;;4933283;28;45346;-64
2022/10/01 07:53:54;;;;;;;;;;;18.80;46.70;;;;;;4932278;28;47085;-64
2022/10/01 07:56:20;;;;;;;;;;;18.80;46.70;;;;;;4930428;28;44861;-64
2022/10/01 07:58:46;;;;;;;;;;;18.80;46.70;;;;;;4931700;28;45450;-63
2022/10/01 08:01:11;;;;;;;;;;;18.80;46.70;;;;;;4931780;28;45172;-64
2022/10/01 08:03:37;;;;;;;;;;;18.80;46.70;;;;;;4930986;28;46079;-64
2022/10/01 08:06:02;;;;;;;;;;;18.80;46.70;;;;;;4917989;28;45507;-64
2022/10/01 08:08:29;;;;;;;;;;;18.80;46.70;;;;;;4932912;28;45316;-63
2022/10/01 08:10:55;;;;;;;;;;;18.80;46.70;;;;;;4931008;28;45670;-63
2022/10/01 08:13:23;;;;;;;;;;;18.70;46.70;;;;;;4935054;28;46145;-63
2022/10/01 08:15:52;;;;;;;;;;;18.70;46.70;;;;;;4933089;28;45318;-63
2022/10/01 08:18:17;;;;;;;;;;;18.80;46.70;;;;;;4933699;28;45101;-63
2022/10/01 08:20:43;;;;;;;;;;;18.80;46.70;;;;;;4934848;28;45442;-63
2022/10/01 08:23:09;;;;;;;;;;;18.80;46.70;;;;;;4935282;28;45157;-63
2022/10/01 08:25:35;;;;;;;;;;;18.70;46.70;;;;;;4933828;28;45572;-64
2022/10/01 08:28:01;;;;;;;;;;;18.80;46.70;;;;;;4934782;28;44878;-63
2022/10/01 08:30:27;;;;;;;;;;;18.80;46.70;;;;;;4934413;28;45624;-64
2022/10/01 08:32:53;;;;;;;;;;;18.80;46.70;;;;;;4936804;28;46138;-63
2022/10/01 08:35:18;;;;;;;;;;;18.80;46.70;;;;;;4915456;28;45178;-62
2022/10/01 08:37:44;;;;;;;;;;;18.70;46.60;;;;;;4944363;23;45255;-63
2022/10/01 08:40:10;;;;;;;;;;;18.70;46.70;;;;;;4918532;28;45414;-62
2022/10/01 08:42:36;;;;;;;;;;;18.80;46.70;;;;;;4927279;28;46188;-62
2022/10/01 08:45:03;;;;;;;;;;;18.70;46.60;;;;;;4931734;28;45261;-63
2022/10/01 08:47:30;;;;;;;;;;;18.70;46.60;;;;;;4923557;28;45188;-63
2022/10/01 08:49:58;;;;;;;;;;;18.70;46.60;;;;;;4920041;28;45191;-63
2022/10/01 08:52:29;;;;;;;;;;;18.70;46.60;;;;;;4933255;28;45880;-63
2022/10/01 08:55:05;;;;;;;;;;;18.70;46.60;;;;;;4917241;28;44929;-62
2022/10/01 08:57:33;;;;;;;;;;;18.70;46.70;;;;;;4914973;28;45336;-63
2022/10/01 09:00:06;;;;;;;;;;;18.70;46.70;;;;;;4916767;28;45615;-63
2022/10/01 09:02:32;;;;;;;;;;;18.70;46.60;;;;;;4918086;28;47315;-63
2022/10/01 09:04:59;;;;;;;;;;;18.70;46.70;;;;;;4934280;28;45503;-63
2022/10/01 09:07:30;;;;;;;;;;;18.70;46.70;;;;;;4930804;28;45254;-62
2022/10/01 09:09:59;;;;;;;;;;;18.60;46.60;;;;;;4934979;28;45897;-63
2022/10/01 09:12:30;;;;;;;;;;;18.70;47.20;;;;;;4932169;28;46011;-62
2022/10/01 09:14:59;;;;;;;;;;;18.70;46.70;;;;;;4921746;28;45554;-62
2022/10/01 09:17:30;;;;;;;;;;;18.70;46.70;;;;;;4929589;28;45269;-62
2022/10/01 09:20:11;;;;;;;;;;;18.60;46.60;;;;;;4932602;28;45324;-62
2022/10/01 09:22:38;;;;;;;;;;;18.60;46.60;;;;;;4928940;28;46311;-62
2022/10/01 09:25:23;;;;;;;;;;;18.60;46.60;;;;;;4925019;28;45303;-64
2022/10/01 09:27:49;;;;;;;;;;;18.70;46.60;;;;;;4914682;28;44885;-63
2022/10/01 09:30:22;;;;;;;;;;;18.70;46.60;;;;;;4929326;28;45323;-64
2022/10/01 09:32:49;;;;;;;;;;;18.60;46.60;;;;;;4931160;28;45908;-63
2022/10/01 09:35:20;;;;;;;;;;;18.70;46.70;;;;;;4913342;28;45027;-63
2022/10/01 09:37:51;;;;;;;;;;;18.60;46.60;;;;;;4919617;28;44762;-63
2022/10/01 09:40:19;;;;;;;;;;;18.60;46.60;;;;;;4907356;28;44754;-63
2022/10/01 09:42:46;;;;;;;;;;;18.60;46.60;;;;;;4915125;28;45407;-63
2022/10/01 09:45:15;;;;;;;;;;;18.70;46.60;;;;;;4921374;28;44946;-63
2022/10/01 09:47:42;;;;;;;;;;;18.60;46.50;;;;;;4915090;28;45967;-63
2022/10/01 09:50:08;;;;;;;;;;;18.60;46.50;;;;;;4921828;28;45029;-64
2022/10/01 09:52:35;;;;;;;;;;;18.60;46.50;;;;;;4911911;28;45516;-63
2022/10/01 09:55:11;;;;;;;;;;;18.60;46.50;;;;;;4933404;28;45448;-64
2022/10/01 09:57:42;;;;;;;;;;;18.60;46.60;;;;;;4918923;28;45161;-63
2022/10/01 10:00:09;;;;;;;;;;;18.60;46.60;;;;;;4915411;28;45644;-63
2022/10/01 10:02:37;;;;;;;;;;;18.60;46.60;;;;;;4927715;28;45619;-64
2022/10/01 10:05:12;;;;;;;;;;;18.60;46.60;;;;;;4926003;28;45256;-63
2022/10/01 10:07:38;;;;;;;;;;;18.60;46.60;;;;;;4930123;28;44924;-63
2022/10/01 10:10:18;;;;;;;;;;;18.60;46.60;;;;;;4915995;28;45593;-63
2022/10/01 10:12:44;;;;;;;;;;;18.60;46.70;;;;;;4917266;28;45250;-63
2022/10/01 10:15:15;;;;;;;;;;;18.60;46.70;;;;;;4933669;28;45094;-64
2022/10/01 10:17:42;;;;;;;;;;;18.60;46.60;;;;;;4932876;28;45286;-63
2022/10/01 10:20:12;;;;;;;;;;;18.60;46.60;;;;;;4932067;28;45468;-64
2022/10/01 10:22:37;;;;;;;;;;;18.60;46.70;;;;;;4927804;28;46627;-63
2022/10/01 10:25:10;;;;;;;;;;;18.60;46.70;;;;;;4932930;28;47649;-63
2022/10/01 10:27:35;;;;;;;;;;;18.50;46.70;;;;;;4931215;28;44678;-64
2022/10/01 10:30:05;;;;;;;;;;;18.50;46.60;;;;;;4928579;28;44773;-63
2022/10/01 10:32:31;;;;;;;;;;;18.60;46.70;;;;;;4917424;28;45994;-63
2022/10/01 10:35:03;;;;;;;;;;;18.50;46.70;;;;;;4932217;28;45252;-63
2022/10/01 10:37:30;;;;;;;;;;;18.50;46.70;;;;;;4932309;28;45432;-64
2022/10/01 10:39:55;;;;;;;;;;;18.50;46.70;;;;;;4914361;28;45210;-63
2022/10/01 10:42:21;;;;;;;;;;;18.60;46.70;;;;;;4932930;28;45552;-63
2022/10/01 10:44:48;;;;;;;;;;;18.50;46.60;;;;;;4918251;28;46215;-63
2022/10/01 10:47:14;;;;;;;;;;;18.60;46.60;;;;;;4914990;28;45245;-64
2022/10/01 10:49:42;;;;;;;;;;;18.50;46.60;;;;;;4917440;28;44959;-64
2022/10/01 10:52:18;;;;;;;;;;;18.60;46.60;;;;;;4933804;28;46277;-64
2022/10/01 10:54:45;;;;;;;;;;;18.60;46.70;;;;;;4931000;28;45244;-64
2022/10/01 10:57:19;;;;;;;;;;;18.50;46.60;;;;;;4930082;28;45263;-63
2022/10/01 10:59:58;;;;;;;;;;;18.50;46.60;;;;;;4931650;28;45274;-64
2022/10/01 11:02:24;;;;;;;;;;;18.50;46.60;;;;;;4934483;28;45529;-63
2022/10/01 11:04:49;;;;;;;;;;;18.60;46.60;;;;;;4927841;28;45381;-64
2022/10/01 11:07:18;;;;;;;;;;;18.60;46.60;;;;;;4933096;28;45312;-63
2022/10/01 11:09:46;;;;;;;;;;;18.50;46.60;;;;;;4914212;28;45205;-63
2022/10/01 11:12:16;;;;;;;;;;;18.50;46.60;;;;;;4916236;28;46954;-62
2022/10/01 11:14:42;;;;;;;;;;;18.50;46.60;;;;;;4918003;28;45209;-63
2022/10/01 11:17:15;;;;;;;;;;;18.50;46.60;;;;;;4932685;28;45216;-63
2022/10/01 11:19:47;;;;;;;;;;;18.50;46.60;;;;;;4932636;28;45423;-63
2022/10/01 11:22:21;;;;;;;;;;;18.50;46.50;;;;;;4932831;28;46104;-63
2022/10/01 11:25:05;;;;;;;;;;;18.50;46.60;;;;;;4935865;28;45312;-65
2022/10/01 11:27:36;;;;;;;;;;;18.50;46.60;;;;;;4907484;28;44985;-63
2022/10/01 11:30:04;;;;;;;;;;;18.50;46.60;;;;;;4936483;28;45201;-63
2022/10/01 11:32:37;;;;;;;;;;;18.60;46.70;;;;;;4925861;28;46167;-63
2022/10/01 11:35:21;;;;;;;;;;;18.50;46.50;;;;;;4925050;28;44651;-63
2022/10/01 11:37:58;;;;;;;;;;;18.50;46.60;;;;;;4920666;28;45049;-63
2022/10/01 11:40:40;;;;;;;;;;;18.50;46.50;;;;;;4939497;28;44857;-63
2022/10/01 11:43:13;;;;;;;;;;;18.50;46.50;;;;;;4916505;28;45952;-64
2022/10/01 11:45:40;;;;;;;;;;;18.60;46.60;;;;;;4933972;28;45023;-63
2022/10/01 11:48:06;;;;;;;;;;;18.50;46.50;;;;;;4920799;28;45129;-63
2022/10/01 11:50:36;;;;;;;;;;;18.50;46.50;;;;;;4933303;28;44884;-64
2022/10/01 11:53:20;;;;;;;;;;;18.50;46.50;;;;;;4926591;28;45948;-63
2022/10/01 11:58:51;;;;;;;;;;;18.50;46.50;;;;;;4919455;28;45821;-63
2022/10/01 12:01:19;;;;;;;;;;;18.50;46.50;;;;;;4917333;28;45321;-63
2022/10/01 12:04:08;;;;;;;;;;;18.50;46.50;;;;;;4933771;28;45925;-63
2022/10/01 12:06:40;;;;;;;;;;;18.50;46.60;;;;;;4920591;28;45535;-63
2022/10/01 12:09:13;;;;;;;;;;;18.50;46.50;;;;;;4932010;28;45529;-63
2022/10/01 12:11:57;;;;;;;;;;;18.50;46.50;;;;;;4927319;28;44781;-63
2022/10/01 12:14:30;;;;;;;;;;;18.50;46.60;;;;;;4927883;28;46033;-63
2022/10/01 12:16:56;;;;;;;;;;;18.50;46.50;;;;;;4929956;28;44840;-64
2022/10/01 12:19:26;;;;;;;;;;;18.50;46.60;;;;;;4928786;28;45692;-63
2022/10/01 12:21:55;;;;;;;;;;;18.50;46.50;;;;;;4898984;28;45413;-64
2022/10/01 12:24:23;;;;;;;;;;;18.50;46.50;;;;;;4933038;28;46217;-64
2022/10/01 12:26:53;;;;;;;;;;;18.50;46.60;;;;;;4917915;28;45063;-63
2022/10/01 12:29:25;;;;;;;;;;;18.50;46.50;;;;;;4919212;28;45866;-63
2022/10/01 12:31:53;;;;;;;;;;;18.50;46.50;;;;;;4932601;28;45310;-63
2022/10/01 12:34:25;;;;;;;;;;;18.50;46.60;;;;;;4927672;28;46103;-63
2022/10/01 12:37:03;;;;;;;;;;;18.50;46.60;;;;;;4923452;28;45382;-64
2022/10/01 12:39:33;;;;;;;;;;;18.50;46.50;;;;;;4917310;28;45247;-65
2022/10/01 12:42:30;;;;;;;;;;;18.50;46.50;;;;;;4912342;28;45927;-64
2022/10/01 12:44:55;;;;;;;;;;;18.50;46.50;;;;;;4908512;28;46145;-64
2022/10/01 12:47:24;;;;;;;;;;;18.50;46.60;;;;;;4930396;28;45261;-64
2022/10/01 12:50:15;;;;;;;;;;;18.50;46.50;;;;;;4930176;28;45196;-63
2022/10/01 12:52:44;;;;;;;;;;;18.50;46.60;;;;;;4901848;28;45444;-63
2022/10/01 12:55:19;;;;;;;;;;;18.50;46.60;;;;;;4915868;28;45421;-64
2022/10/01 12:57:59;;;;;;;;;;;18.50;46.60;;;;;;4932495;28;45268;-62
2022/10/01 13:00:26;;;;;;;;;;;18.50;46.60;;;;;;4932811;28;45143;-64
2022/10/01 13:02:51;;;;;;;;;;;18.50;46.60;;;;;;4913845;28;45524;-63
2022/10/01 13:05:18;;;;;;;;;;;18.50;46.60;;;;;;4933348;28;45973;-63
2022/10/01 13:07:47;;;;;;;;;;;18.50;46.60;;;;;;4911380;28;45302;-64
2022/10/01 13:10:28;;;;;;;;;;;18.50;46.60;;;;;;4898715;28;45518;-63
2022/10/01 13:12:57;;;;;;;;;;;18.50;46.60;;;;;;4935127;28;46215;-63
2022/10/01 13:15:37;;;;;;;;;;;18.50;46.60;;;;;;4933757;28;46297;-64
2022/10/01 13:18:14;;;;;;;;;;;18.50;46.60;;;;;;4913712;28;45204;-63
2022/10/01 13:20:47;;;;;;;;;;;18.50;46.60;;;;;;4928893;28;45605;-64
2022/10/01 13:23:22;;;;;;;;;;;18.50;46.70;;;;;;4931070;28;45378;-64
2022/10/01 13:25:58;;;;;;;;;;;18.50;46.60;;;;;;4922695;28;46141;-63
2022/10/01 13:28:30;;;;;;;;;;;18.50;46.60;;;;;;4929965;28;45152;-64
2022/10/01 13:30:58;;;;;;;;;;;18.50;46.70;;;;;;4933203;28;45829;-63
2022/10/01 13:33:25;;;;;;;;;;;18.50;46.60;;;;;;4913571;28;46307;-63
2022/10/01 13:35:55;;;;;;;;;;;18.50;46.60;;;;;;4931904;28;46252;-63
2022/10/01 13:38:38;;;;;;;;;;;18.50;46.70;;;;;;4926876;28;45551;-63
2022/10/01 13:41:16;;;;;;;;;;;18.50;46.70;;;;;;4924203;28;46836;-63
2022/10/01 13:43:46;;;;;;;;;;;18.50;46.70;;;;;;4935596;28;45610;-63
2022/10/01 13:46:11;;;;;;;;;;;18.40;46.70;;;;;;4931281;28;46044;-63
2022/10/01 13:48:43;;;;;;;;;;;18.50;46.70;;;;;;4914411;28;45691;-63
2022/10/01 13:51:09;;;;;;;;;;;18.50;46.80;;;;;;4914905;28;44738;-63
2022/10/01 13:53:35;;;;;;;;;;;18.50;46.80;;;;;;4915129;28;45893;-64
2022/10/01 13:56:01;;;;;;;;;;;18.50;46.80;;;;;;4915370;28;46935;-63
2022/10/01 13:58:29;;;;;;;;;;;18.50;46.80;;;;;;4915966;28;45968;-64
2022/10/01 14:01:05;;;;;;;;;;;18.50;46.80;;;;;;4935891;28;45286;-63
2022/10/01 14:03:33;;;;;;;;;;;18.50;47.40;;;;;;4932992;28;45292;-64
2022/10/01 14:05:58;;;;;;;;;;;18.50;46.90;;;;;;4933305;28;45148;-64
2022/10/01 14:08:36;;;;;;;;;;;18.40;46.70;;;;;;4932399;28;45271;-62
2022/10/01 14:16:36;;;;;;;;;;;18.50;46.90;;;;;;4919324;28;45891;-63
2022/10/01 14:19:02;;;;;;;;;;;18.50;47.00;;;;;;4916508;28;44671;-63
2022/10/01 14:21:31;;;;;;;;;;;18.50;47.00;;;;;;4928093;28;44689;-62
2022/10/01 14:24:06;;;;;;;;;;;18.50;46.90;;;;;;4915681;28;45415;-63
2022/10/01 14:26:49;;;;;;;;;;;18.50;47.00;;;;;;4935242;28;47077;-63
2022/10/01 14:29:18;;;;;;;;;;;18.50;46.90;;;;;;4911952;28;48426;-63
2022/10/01 14:31:46;;;;;;;;;;;18.50;47.00;;;;;;4927934;28;45316;-64
2022/10/01 14:34:12;;;;;;;;;;;18.50;47.00;;;;;;4914528;28;45565;-63
2022/10/01 14:36:41;;;;;;;;;;;18.50;47.00;;;;;;4930243;28;45982;-63
2022/10/01 14:39:11;;;;;;;;;;;18.50;47.00;;;;;;4930928;28;45311;-63
2022/10/01 14:41:36;;;;;;;;;;;18.50;47.00;;;;;;4912554;28;45436;-63
2022/10/01 14:44:14;;;;;;;;;;;18.50;47.00;;;;;;4933726;28;45622;-64
2022/10/01 14:46:39;;;;;;;;;;;18.50;47.00;;;;;;4917814;28;46564;-64
2022/10/01 14:49:05;;;;;;;;;;;18.50;47.10;;;;;;4933757;28;45271;-64
2022/10/01 14:51:30;;;;;;;;;;;18.50;47.10;;;;;;4930903;28;45627;-64
2022/10/01 14:53:56;;;;;;;;;;;18.50;47.10;;;;;;4932985;28;45685;-63
2022/10/01 14:56:22;;;;;;;;;;;18.50;47.10;;;;;;4931549;28;46169;-63
2022/10/01 14:58:54;;;;;;;;;;;18.50;47.10;;;;;;4915898;28;45444;-63
2022/10/01 15:01:23;;;;;;;;;;;18.40;47.00;;;;;;4928861;28;45563;-64
2022/10/01 15:03:49;;;;;;;;;;;18.40;47.00;;;;;;4931832;28;46069;-64
2022/10/01 15:06:15;;;;;;;;;;;18.50;47.70;;;;;;4931890;28;45417;-64
2022/10/01 15:08:46;;;;;;;;;;;18.40;47.10;;;;;;4932894;28;45095;-64
2022/10/01 15:11:31;;;;;;;;;;;18.40;47.70;;;;;;4921740;28;45907;-64
2022/10/01 15:14:00;;;;;;;;;;;18.40;47.10;;;;;;4928534;28;45477;-64
2022/10/01 15:16:26;;;;;;;;;;;18.40;47.10;;;;;;4914829;28;46508;-64
2022/10/01 15:18:52;;;;;;;;;;;18.40;47.10;;;;;;4932764;28;45535;-63
2022/10/01 15:21:34;;;;;;;;;;;18.40;47.70;;;;;;4925563;28;45590;-64
2022/10/01 15:24:03;;;;;;;;;;;18.40;47.10;;;;;;4923624;28;45336;-64
2022/10/01 15:26:28;;;;;;;;;;;18.40;47.10;;;;;;4930065;28;45730;-62
2022/10/01 15:29:04;;;;;;;;;;;18.40;47.10;;;;;;4909886;28;45293;-64
2022/10/01 15:31:29;;;;;;;;;;;18.40;47.10;;;;;;4929012;28;44949;-63
2022/10/01 15:33:55;;;;;;;;;;;18.40;47.20;;;;;;4919351;28;46031;-64
2022/10/01 15:36:21;;;;;;;;;;;18.40;47.40;;;;;;4925849;28;45185;-63
2022/10/01 15:38:46;;;;;;;;;;;18.50;47.40;;;;;;4936167;28;45450;-63
2022/10/01 15:41:22;;;;;;;;;;;18.60;47.20;;;;;;4915328;28;44763;-64
2022/10/01 15:43:48;;;;;;;;;;;18.70;47.00;;;;;;4919731;28;45488;-64
2022/10/01 15:46:24;;;;;;;;;;;18.90;46.70;;;;;;4916370;28;46048;-64
2022/10/01 15:49:09;;;;;;;;;;;19.10;46.50;;;;;;4934866;28;45591;-64
2022/10/01 15:51:34;;;;;;;0.60;0.60;;;19.30;46.20;;;;;;4932655;28;44829;-64
2022/10/01 15:54:03;;;;;;;0.95;0.60;;;19.50;45.80;;;;;;4914258;28;45257;-64
2022/10/01 15:56:29;;;;;;;0.75;0.65;;;19.70;45.60;;;;;;4898484;28;46181;-64
2022/10/01 15:58:56;;;;;;;1.08;0.90;;;19.90;45.50;;;;;;4900804;28;45517;-64
2022/10/01 16:01:23;;;;;;;0.80;0.70;;;20.10;45.40;;;;;;4923333;28;46158;-65
2022/10/01 16:03:55;;;;;;;0.60;0.60;;;20.20;45.30;;;;;;4905681;28;45330;-64
2022/10/01 16:06:28;;;;;;;1.80;0.90;;;20.40;45.10;;;;;;4919692;28;46901;-64
2022/10/01 16:09:14;;;;;;;0.70;0.70;;;20.60;45.00;;;;;;4919053;28;44571;-64
2022/10/01 16:12:22;;;;;;;0.90;0.80;;;20.60;44.80;;;;;;4925862;28;45101;-64
2022/10/01 16:15:01;;;;;;;1.00;0.75;;;20.80;44.60;;;;;;4920480;28;45051;-64
2022/10/01 16:17:28;;;;;;;1.02;0.93;;;21.00;44.50;;;;;;4916121;28;45217;-64
2022/10/01 16:19:59;;;;;;;0.88;0.70;;;21.10;44.60;;;;;;4901725;28;45439;-65
2022/10/01 16:22:36;;;;;;;0.90;0.80;;;21.20;44.40;;;;;;4917069;28;44745;-64
2022/10/01 16:25:23;;;;;;;1.60;0.82;;;21.40;44.30;;;;;;4922151;28;45650;-64
2022/10/01 16:28:03;;;;;;;0.50;0.50;;;21.50;44.30;;;;;;4905874;28;46248;-64
2022/10/01 16:30:28;;;;;;;0.60;0.60;;;21.60;44.20;;;;;;4904050;28;45439;-65
2022/10/01 16:32:55;;;;;;;0.85;0.80;;;21.70;44.00;;;;;;4915447;28;45336;-65
2022/10/01 16:35:22;;;;;;;0.70;0.70;;;21.90;43.90;;;;;;4935338;28;45217;-65
2022/10/01 16:37:49;;;;;;;0.65;0.65;;;22.00;43.80;;;;;;4934398;28;45322;-64
2022/10/01 16:40:15;;;;;;;0.73;0.55;;;22.10;43.70;;;;;;4888770;28;44766;-65
2022/10/01 16:42:41;;;;;;;0.63;0.60;;;22.20;43.60;;;;;;4936634;28;45417;-64
2022/10/01 16:45:14;;;;;;;0.40;0.40;;;22.30;43.50;;;;;;4931926;28;45458;-64
2022/10/01 16:47:40;;;;;;;0.40;0.40;;;22.40;43.40;;;;;;4904989;28;45914;-64
2022/10/01 16:50:09;;;;;;;0.65;0.65;;;22.50;43.30;;;;;;4927359;28;45135;-63
2022/10/01 16:52:36;;;;;;;0.85;0.65;;;22.60;43.20;;;;;;4905594;28;44736;-64
2022/10/01 16:55:02;;;;;;;1.02;0.60;;;22.70;43.20;;;;;;4919298;28;45109;-65
2022/10/01 16:57:27;;;;;;;0.63;0.60;;;22.70;43.10;;;;;;4916781;28;45285;-65
2022/10/01 16:59:53;;;;;;;0.90;0.60;;;22.80;43.00;;;;;;4928972;28;45243;-65
2022/10/01 17:02:18;;;;;;;1.05;0.50;;;22.80;42.80;;;;;;4932769;28;44702;-63
2022/10/01 17:04:44;;;;;;;0.95;0.60;;;22.80;42.80;;;;;;4890909;28;45224;-65
2022/10/01 17:07:09;;;;;;;1.00;0.43;;;22.70;42.90;;;;;;4918538;28;45485;-64
2022/10/01 17:09:35;;;;;;;0.90;0.60;;;22.70;43.00;;;;;;4918287;28;45361;-65
2022/10/01 17:12:01;;;;;;;1.00;0.60;;;22.60;43.10;;;;;;4931345;28;45327;-65
2022/10/01 17:14:26;;;;;;;1.67;0.60;;;22.60;43.10;;;;;;4904074;28;45462;-65
2022/10/01 17:16:52;;;;;;;0.60;0.60;;;22.50;43.20;;;;;;4929667;28;45325;-65
2022/10/01 17:19:18;;;;;;;0.50;0.50;;;22.50;43.30;;;;;;4913910;28;45008;-64